createdAt,value
2022-08-01T00:01:58.069Z,1.52
2022-08-01T00:04:15.187Z,1.83
2022-08-01T00:06:32.180Z,1.42
2022-08-01T00:08:50.193Z,1.70
2022-08-01T00:11:07.451Z,1.67
2022-08-01T00:13:24.463Z,1.60
2022-08-01T00:15:41.437Z,1.60
2022-08-01T00:18:11.731Z,1.55
2022-08-01T00:20:28.693Z,1.50
2022-08-01T00:22:47.185Z,1.63
2022-08-01T00:25:04.449Z,1.85
2022-08-01T00:27:21.433Z,1.67
2022-08-01T00:30:10.152Z,1.58
2022-08-01T00:32:15.345Z,1.50
2022-08-01T00:34:32.361Z,1.70
2022-08-01T00:36:49.410Z,1.35
2022-08-01T00:39:07.446Z,1.85
2022-08-01T00:41:24.802Z,1.60
2022-08-01T00:43:42.862Z,1.52
2022-08-01T00:45:59.876Z,1.65
2022-08-01T00:48:17.198Z,1.67
2022-08-01T00:50:34.109Z,1.50
2022-08-01T00:52:51.453Z,1.70
2022-08-01T00:55:08.976Z,1.60
2022-08-01T00:57:40.055Z,1.40
2022-08-01T01:00:07.463Z,1.58
2022-08-01T01:02:24.691Z,1.88
2022-08-01T01:04:41.913Z,1.30
2022-08-01T01:06:59.262Z,1.60
2022-08-01T01:09:16.327Z,1.50
2022-08-01T01:11:33.679Z,1.40
2022-08-01T01:13:51.057Z,1.42
2022-08-01T01:16:08.458Z,1.50
2022-08-01T01:18:26.726Z,1.50
2022-08-01T01:20:45.079Z,1.30
2022-08-01T01:23:02.130Z,1.50
2022-08-01T01:25:19.372Z,1.48
2022-08-01T01:27:37.487Z,1.40
2022-08-01T01:30:00.238Z,1.40
2022-08-01T01:32:18.314Z,1.58
2022-08-01T01:34:35.288Z,1.50
2022-08-01T01:36:52.339Z,1.60
2022-08-01T01:39:09.647Z,1.50
2022-08-01T01:41:26.678Z,1.23
2022-08-01T01:43:43.696Z,1.88
2022-08-01T01:46:00.797Z,1.70
2022-08-01T01:48:19.119Z,1.33
2022-08-01T01:50:36.397Z,1.83
2022-08-01T01:52:54.429Z,1.58
2022-08-01T01:55:12.670Z,1.75
2022-08-01T01:57:29.695Z,1.67
2022-08-01T01:59:46.771Z,1.63
2022-08-01T02:02:06.359Z,1.55
2022-08-01T02:04:25.506Z,1.70
2022-08-01T02:06:42.884Z,1.70
2022-08-01T02:09:00.211Z,1.67
2022-08-01T02:11:17.219Z,1.58
2022-08-01T02:13:34.531Z,1.63
2022-08-01T02:15:59.901Z,1.63
2022-08-01T02:18:17.920Z,1.70
2022-08-01T02:20:40.885Z,1.85
2022-08-01T02:22:58.167Z,1.70
2022-08-01T02:25:15.497Z,1.63
2022-08-01T02:27:32.732Z,1.70
2022-08-01T02:29:49.781Z,1.35
2022-08-01T02:32:07.457Z,1.50
2022-08-01T02:34:25.600Z,1.70
2022-08-01T02:36:42.704Z,1.33
2022-08-01T02:38:59.794Z,1.80
2022-08-01T02:41:17.110Z,1.70
2022-08-01T02:43:34.158Z,1.70
2022-08-01T02:45:51.436Z,1.48
2022-08-01T02:48:08.773Z,1.65
2022-08-01T02:50:27.106Z,1.60
2022-08-01T02:52:44.202Z,1.60
2022-08-01T02:55:02.481Z,1.73
2022-08-01T02:57:19.530Z,1.67
2022-08-01T02:59:38.489Z,1.67
2022-08-01T03:01:58.621Z,1.90
2022-08-01T03:04:17.914Z,1.55
2022-08-01T03:06:35.007Z,1.60
2022-08-01T03:08:52.364Z,1.90
2022-08-01T03:11:10.769Z,1.80
2022-08-01T03:13:28.068Z,1.70
2022-08-01T03:15:45.235Z,1.58
2022-08-01T03:18:02.211Z,1.50
2022-08-01T03:20:19.523Z,1.80
2022-08-01T03:22:36.816Z,1.60
2022-08-01T03:24:54.163Z,1.80
2022-08-01T03:27:11.463Z,1.80
2022-08-01T03:29:31.084Z,1.70
2022-08-01T03:31:48.419Z,1.65
2022-08-01T03:34:06.107Z,1.77
2022-08-01T03:36:23.541Z,1.80
2022-08-01T03:38:40.885Z,1.83
2022-08-01T03:40:57.938Z,1.73
2022-08-01T03:43:15.195Z,1.80
2022-08-01T03:45:32.250Z,1.60
2022-08-01T03:47:49.319Z,1.90
2022-08-01T03:50:12.315Z,1.95
2022-08-01T03:52:29.946Z,1.73
2022-08-01T03:54:47.225Z,1.88
2022-08-01T03:57:04.134Z,1.73
2022-08-01T03:59:21.550Z,1.88
2022-08-01T04:01:38.564Z,1.70
2022-08-01T04:03:55.755Z,1.85
2022-08-01T04:06:12.839Z,1.75
2022-08-01T04:08:30.109Z,1.80
2022-08-01T04:10:47.443Z,1.80
2022-08-01T04:13:07.840Z,1.80
2022-08-01T04:15:25.186Z,1.80
2022-08-01T04:17:42.514Z,1.80
2022-08-01T04:19:59.489Z,1.63
2022-08-01T04:22:16.830Z,2.03
2022-08-01T04:24:33.872Z,1.60
2022-08-01T04:26:51.374Z,1.90
2022-08-01T04:29:08.416Z,1.80
2022-08-01T04:31:25.586Z,1.92
2022-08-01T04:33:42.573Z,1.77
2022-08-01T04:36:02.740Z,1.80
2022-08-01T04:38:21.677Z,1.80
2022-08-01T04:40:41.374Z,1.83
2022-08-01T04:42:58.299Z,1.70
2022-08-01T04:45:15.241Z,1.67
2022-08-01T04:47:32.543Z,1.80
2022-08-01T04:49:49.871Z,1.90
2022-08-01T04:52:07.335Z,1.80
2022-08-01T04:54:25.713Z,1.80
2022-08-01T04:56:43.072Z,2.05
2022-08-01T04:59:00.333Z,1.90
2022-08-01T05:01:17.669Z,1.70
2022-08-01T05:03:38.688Z,1.75
2022-08-01T05:05:57.146Z,1.70
2022-08-01T05:08:14.258Z,1.95
2022-08-01T05:10:32.158Z,1.83
2022-08-01T05:12:50.220Z,1.60
2022-08-01T05:15:10.454Z,1.70
2022-08-01T05:17:31.991Z,1.70
2022-08-01T05:19:49.273Z,1.95
2022-08-01T05:22:06.678Z,1.70
2022-08-01T05:24:23.846Z,1.50
2022-08-01T05:26:40.999Z,1.67
2022-08-01T05:28:58.995Z,1.88
2022-08-01T05:31:16.035Z,1.92
2022-08-01T05:33:33.362Z,1.85
2022-08-01T05:35:50.357Z,1.50
2022-08-01T05:38:07.354Z,1.67
2022-08-01T05:40:30.585Z,1.55
2022-08-01T05:42:47.968Z,1.58
2022-08-01T05:45:05.016Z,1.60
2022-08-01T05:47:23.293Z,1.45
2022-08-01T05:49:41.394Z,1.58
2022-08-01T05:51:58.455Z,1.60
2022-08-01T05:54:15.536Z,1.50
2022-08-01T05:56:32.796Z,1.60
2022-08-01T05:58:51.099Z,1.60
2022-08-01T06:01:08.308Z,1.60
2022-08-01T06:03:25.482Z,1.45
2022-08-01T06:05:42.804Z,1.60
2022-08-01T06:07:59.837Z,1.30
2022-08-01T06:10:17.154Z,1.52
2022-08-01T06:12:35.742Z,1.33
2022-08-01T06:14:53.138Z,1.35
2022-08-01T06:17:12.986Z,1.20
2022-08-01T06:19:29.964Z,1.10
2022-08-01T06:21:47.047Z,1.30
2022-08-01T06:24:04.408Z,1.20
2022-08-01T06:26:21.451Z,1.25
2022-08-01T06:28:38.537Z,1.60
2022-08-01T06:30:55.410Z,1.30
2022-08-01T06:33:12.490Z,1.13
2022-08-01T06:35:30.482Z,1.50
2022-08-01T06:37:47.476Z,1.30
2022-08-01T06:40:05.487Z,1.52
2022-08-01T06:42:22.431Z,1.50
2022-08-01T06:44:42.135Z,1.45
2022-08-01T06:46:59.153Z,1.67
2022-08-01T06:49:16.538Z,1.30
2022-08-01T06:51:33.707Z,1.55
2022-08-01T06:53:51.042Z,1.35
2022-08-01T06:56:08.402Z,1.33
2022-08-01T06:58:30.828Z,1.70
2022-08-01T07:00:52.544Z,1.73
2022-08-01T07:03:13.290Z,1.60
2022-08-01T07:05:31.341Z,1.50
2022-08-01T07:07:48.400Z,1.80
2022-08-01T07:10:05.320Z,1.58
2022-08-01T07:12:22.315Z,1.58
2022-08-01T07:14:39.398Z,1.60
2022-08-01T07:16:57.387Z,1.60
2022-08-01T07:19:24.962Z,1.70
2022-08-01T07:21:42.046Z,1.55
2022-08-01T07:24:02.283Z,1.75
2022-08-01T07:26:30.464Z,1.67
2022-08-01T07:28:47.741Z,1.60
2022-08-01T07:31:04.804Z,1.70
2022-08-01T07:33:24.306Z,1.80
2022-08-01T07:35:41.421Z,1.80
2022-08-01T07:37:58.877Z,1.70
2022-08-01T07:40:17.173Z,1.80
2022-08-01T07:42:34.249Z,1.92
2022-08-01T07:44:51.280Z,2.20
2022-08-01T07:47:09.289Z,1.60
2022-08-01T07:49:26.598Z,1.73
2022-08-01T07:51:43.919Z,1.70
2022-08-01T07:54:21.858Z,1.85
2022-08-01T07:56:51.015Z,1.95
2022-08-01T07:59:08.042Z,1.67
2022-08-01T08:01:26.101Z,2.20
2022-08-01T08:03:43.395Z,1.80
2022-08-01T08:06:00.665Z,1.83
2022-08-01T08:08:17.663Z,1.90
2022-08-01T08:10:35.893Z,1.88
2022-08-01T08:12:53.990Z,2.08
2022-08-01T08:15:11.054Z,1.98
2022-08-01T08:17:28.380Z,2.05
2022-08-01T08:19:45.459Z,2.10
2022-08-01T08:22:02.508Z,1.80
2022-08-01T08:24:19.851Z,2.05
2022-08-01T08:26:38.182Z,2.10
2022-08-01T08:28:55.751Z,1.90
2022-08-01T08:31:50.646Z,2.00
2022-08-01T08:33:50.736Z,2.20
2022-08-01T08:36:08.533Z,2.10
2022-08-01T08:38:28.523Z,2.00
2022-08-01T08:40:47.211Z,1.95
2022-08-01T08:43:04.162Z,2.15
2022-08-01T08:45:22.259Z,2.00
2022-08-01T08:47:59.543Z,2.00
2022-08-01T08:50:16.901Z,2.20
2022-08-01T08:52:33.920Z,1.80
2022-08-01T08:54:51.216Z,1.95
2022-08-01T08:57:08.245Z,2.00
2022-08-01T08:59:25.267Z,1.70
2022-08-01T09:01:42.223Z,1.85
2022-08-01T09:03:59.286Z,1.98
2022-08-01T09:06:16.327Z,1.95
2022-08-01T09:08:33.450Z,2.05
2022-08-01T09:10:51.443Z,1.90
2022-08-01T09:13:08.745Z,2.17
2022-08-01T09:15:28.164Z,2.05
2022-08-01T09:20:08.493Z,2.10
2022-08-01T09:22:25.469Z,1.85
2022-08-01T09:24:42.533Z,2.03
2022-08-01T09:26:59.873Z,2.00
2022-08-01T09:29:28.960Z,2.10
2022-08-01T09:31:55.411Z,2.08
2022-08-01T09:34:12.794Z,2.00
2022-08-01T09:36:30.317Z,2.25
2022-08-01T09:38:51.053Z,2.10
2022-08-01T09:41:09.315Z,1.92
2022-08-01T09:43:32.057Z,1.92
2022-08-01T09:45:50.826Z,2.00
2022-08-01T09:48:10.900Z,1.80
2022-08-01T09:50:28.974Z,2.00
2022-08-01T09:52:45.987Z,1.65
2022-08-01T09:55:08.498Z,1.80
2022-08-01T09:57:25.596Z,1.70
2022-08-01T09:59:57.770Z,1.60
2022-08-01T10:02:15.941Z,2.03
2022-08-01T10:04:32.981Z,1.92
2022-08-01T10:06:51.442Z,1.88
2022-08-01T10:09:08.726Z,2.05
2022-08-01T10:11:35.872Z,1.75
2022-08-01T10:13:53.690Z,1.80
2022-08-01T10:16:12.520Z,1.80
2022-08-01T10:18:33.056Z,1.83
2022-08-01T10:20:51.362Z,1.77
2022-08-01T10:23:09.443Z,1.90
2022-08-01T10:25:42.042Z,1.70
2022-08-01T10:28:00.809Z,1.90
2022-08-01T10:30:23.520Z,1.75
2022-08-01T10:32:41.440Z,1.60
2022-08-01T10:34:58.745Z,1.77
2022-08-01T10:37:15.869Z,1.67
2022-08-01T10:39:33.423Z,1.67
2022-08-01T10:41:50.460Z,1.70
2022-08-01T10:44:07.673Z,1.80
2022-08-01T10:46:27.204Z,1.50
2022-08-01T10:48:44.184Z,1.75
2022-08-01T10:51:02.647Z,1.65
2022-08-01T10:53:23.892Z,1.55
2022-08-01T10:55:48.554Z,1.67
2022-08-01T10:58:06.794Z,1.65
2022-08-01T11:00:23.804Z,1.70
2022-08-01T11:02:45.451Z,1.60
2022-08-01T11:05:04.289Z,1.45
2022-08-01T11:07:22.071Z,1.50
2022-08-01T11:09:43.725Z,1.50
2022-08-01T11:12:01.990Z,1.60
2022-08-01T11:14:26.464Z,1.70
2022-08-01T11:16:52.359Z,1.42
2022-08-01T11:19:09.871Z,1.63
2022-08-01T11:21:58.523Z,1.50
2022-08-01T11:24:04.163Z,1.60
2022-08-01T11:26:29.611Z,1.63
2022-08-01T11:29:10.921Z,1.60
2022-08-01T11:31:24.271Z,1.63
2022-08-01T11:33:41.264Z,1.70
2022-08-01T11:35:58.585Z,1.55
2022-08-01T11:38:15.686Z,1.50
2022-08-01T11:40:34.029Z,1.42
2022-08-01T11:42:51.385Z,1.33
2022-08-01T11:45:12.519Z,1.40
2022-08-01T11:47:33.185Z,1.30
2022-08-01T11:49:54.085Z,1.30
2022-08-01T11:52:12.428Z,1.40
2022-08-01T11:54:35.090Z,1.60
2022-08-01T11:56:54.595Z,1.70
2022-08-01T11:59:15.290Z,1.40
2022-08-01T12:01:32.907Z,1.63
2022-08-01T12:03:50.174Z,1.30
2022-08-01T12:06:08.029Z,1.30
2022-08-01T12:08:25.977Z,1.40
2022-08-01T12:10:49.549Z,1.60
2022-08-01T12:15:24.081Z,1.42
2022-08-01T12:17:41.016Z,1.40
2022-08-01T12:20:03.629Z,1.48
2022-08-01T12:22:20.559Z,1.40
2022-08-01T12:24:37.873Z,1.40
2022-08-01T12:26:55.209Z,1.35
2022-08-01T12:29:12.281Z,1.50
2022-08-01T12:31:30.565Z,1.50
2022-08-01T12:33:47.524Z,1.40
2022-08-01T12:36:06.315Z,1.30
2022-08-01T12:38:23.285Z,1.42
2022-08-01T12:40:44.938Z,1.35
2022-08-01T12:43:02.650Z,1.30
2022-08-01T12:45:20.568Z,1.20
2022-08-01T12:47:37.916Z,1.40
2022-08-01T12:49:54.849Z,1.35
2022-08-01T12:52:13.465Z,1.10
2022-08-01T12:54:30.519Z,1.40
2022-08-01T12:56:47.829Z,1.40
2022-08-01T12:59:05.876Z,1.30
2022-08-01T13:01:25.080Z,1.20
2022-08-01T13:03:42.458Z,1.40
2022-08-01T13:06:00.538Z,1.40
2022-08-01T13:08:17.473Z,1.48
2022-08-01T13:10:36.037Z,1.30
2022-08-01T13:12:53.011Z,1.40
2022-08-01T13:15:10.316Z,1.40
2022-08-01T13:17:28.458Z,1.58
2022-08-01T13:19:45.737Z,1.40
2022-08-01T13:22:03.096Z,1.42
2022-08-01T13:24:21.085Z,1.50
2022-08-01T13:26:38.190Z,1.80
2022-08-01T13:28:55.270Z,1.70
2022-08-01T13:31:12.593Z,1.80
2022-08-01T13:33:29.545Z,1.50
2022-08-01T13:35:47.340Z,1.40
2022-08-01T13:38:04.196Z,1.60
2022-08-01T13:40:21.292Z,1.60
2022-08-01T13:42:38.906Z,1.70
2022-08-01T13:44:56.179Z,1.30
2022-08-01T13:47:15.323Z,1.83
2022-08-01T13:49:37.396Z,1.60
2022-08-01T13:51:55.349Z,1.40
2022-08-01T13:54:12.768Z,1.67
2022-08-01T13:56:30.085Z,1.50
2022-08-01T13:58:47.398Z,1.40
2022-08-01T14:01:04.821Z,1.60
2022-08-01T14:03:26.592Z,1.40
2022-08-01T14:05:51.267Z,1.45
2022-08-01T14:08:15.954Z,1.40
2022-08-01T14:10:33.958Z,1.70
2022-08-01T14:12:56.796Z,1.60
2022-08-01T14:15:15.026Z,1.57
2022-08-01T14:17:55.172Z,1.63
2022-08-01T14:20:12.638Z,1.70
2022-08-01T14:22:29.972Z,1.50
2022-08-01T14:24:47.269Z,1.40
2022-08-01T14:27:05.540Z,1.45
2022-08-01T14:29:23.484Z,1.48
2022-08-01T14:32:00.745Z,1.50
2022-08-01T14:34:20.719Z,1.40
2022-08-01T14:36:39.092Z,1.50
2022-08-01T14:39:00.103Z,1.42
2022-08-01T14:41:18.237Z,1.70
2022-08-01T14:43:35.559Z,1.45
2022-08-01T14:45:52.688Z,1.50
2022-08-01T14:48:09.799Z,1.48
2022-08-01T14:50:27.929Z,1.60
2022-08-01T14:52:45.017Z,1.50
2022-08-01T14:55:02.281Z,1.50
2022-08-01T14:57:19.507Z,1.55
2022-08-01T14:59:38.488Z,1.40
2022-08-01T15:01:55.828Z,1.60
2022-08-01T15:04:14.678Z,1.58
2022-08-01T15:06:32.089Z,1.50
2022-08-01T15:08:49.367Z,1.60
2022-08-01T15:11:07.362Z,1.42
2022-08-01T15:13:25.438Z,1.50
2022-08-01T15:15:42.736Z,1.52
2022-08-01T15:17:59.828Z,1.40
2022-08-01T15:20:16.839Z,1.52
2022-08-01T15:22:34.029Z,1.70
2022-08-01T15:24:55.436Z,1.63
2022-08-01T15:27:14.553Z,1.60
2022-08-01T15:29:32.826Z,1.60
2022-08-01T15:31:49.807Z,1.63
2022-08-01T15:34:06.714Z,1.80
2022-08-01T15:36:25.558Z,1.67
2022-08-01T15:38:42.892Z,1.67
2022-08-01T15:41:00.166Z,1.70
2022-08-01T15:43:18.066Z,1.60
2022-08-01T15:45:51.317Z,1.80
2022-08-01T15:48:08.494Z,1.80
2022-08-01T15:50:25.563Z,1.65
2022-08-01T15:52:42.932Z,1.58
2022-08-01T15:55:01.011Z,1.70
2022-08-01T15:57:18.298Z,1.70
2022-08-01T15:59:41.446Z,1.80
2022-08-01T16:01:58.939Z,1.80
2022-08-01T16:04:15.893Z,1.70
2022-08-01T16:06:34.150Z,1.80
2022-08-01T16:08:51.091Z,2.10
2022-08-01T16:11:08.435Z,1.88
2022-08-01T16:13:26.728Z,2.00
2022-08-01T16:15:43.803Z,2.10
2022-08-01T16:18:01.942Z,2.22
2022-08-01T16:20:20.217Z,2.30
2022-08-01T16:22:38.306Z,2.00
2022-08-01T16:25:00.602Z,2.10
2022-08-01T16:27:18.264Z,1.75
2022-08-01T16:29:35.455Z,2.10
2022-08-01T16:32:08.326Z,2.00
2022-08-01T16:34:28.020Z,1.80
2022-08-01T16:36:46.101Z,1.90
2022-08-01T16:39:04.202Z,2.53
2022-08-01T16:41:21.567Z,2.00
2022-08-01T16:43:39.602Z,2.10
2022-08-01T16:46:03.198Z,2.28
2022-08-01T16:48:20.471Z,2.00
2022-08-01T16:50:37.545Z,2.10
2022-08-01T16:52:58.117Z,2.30
2022-08-01T16:55:17.514Z,2.20
2022-08-01T16:57:34.604Z,2.30
2022-08-01T16:59:51.876Z,2.45
2022-08-01T17:02:09.226Z,2.45
2022-08-01T17:04:26.460Z,2.35
2022-08-01T17:06:43.415Z,2.33
2022-08-01T17:09:00.447Z,2.70
2022-08-01T17:11:17.816Z,2.55
2022-08-01T17:13:36.087Z,2.97
2022-08-01T17:15:53.179Z,2.70
2022-08-01T17:18:10.429Z,3.30
2022-08-01T17:20:28.689Z,2.95
2022-08-01T17:22:45.706Z,2.40
2022-08-01T17:25:03.665Z,2.00
2022-08-01T17:27:20.781Z,2.10
2022-08-01T17:29:43.303Z,1.73
2022-08-01T17:32:01.828Z,2.00
2022-08-01T17:34:19.151Z,1.90
2022-08-01T17:36:37.212Z,1.98
2022-08-01T17:38:54.277Z,1.80
2022-08-01T17:41:11.285Z,1.70
2022-08-01T17:43:28.781Z,1.80
2022-08-01T17:45:51.065Z,1.98
2022-08-01T17:48:08.457Z,2.08
2022-08-01T17:50:25.794Z,1.95
2022-08-01T17:52:43.886Z,2.08
2022-08-01T17:55:01.068Z,2.05
2022-08-01T17:57:20.025Z,2.00
2022-08-01T17:59:37.002Z,1.90
2022-08-01T18:01:55.279Z,1.90
2022-08-01T18:04:12.543Z,2.17
2022-08-01T18:06:29.992Z,1.90
2022-08-01T18:08:48.385Z,1.88
2022-08-01T18:11:05.386Z,1.92
2022-08-01T18:13:22.502Z,2.00
2022-08-01T18:15:39.915Z,2.10
2022-08-01T18:17:57.256Z,2.05
2022-08-01T18:20:14.259Z,2.10
2022-08-01T18:22:33.698Z,2.05
2022-08-01T18:24:51.401Z,1.85
2022-08-01T18:27:08.732Z,1.90
2022-08-01T18:29:47.093Z,2.08
2022-08-01T18:32:03.376Z,1.85
2022-08-01T18:34:20.907Z,2.03
2022-08-01T18:36:40.361Z,2.17
2022-08-01T18:38:57.829Z,2.10
2022-08-01T18:41:15.536Z,2.13
2022-08-01T18:43:32.830Z,2.22
2022-08-01T18:45:49.871Z,2.03
2022-08-01T18:48:06.903Z,2.22
2022-08-01T18:50:24.015Z,2.00
2022-08-01T18:52:41.311Z,2.10
2022-08-01T18:54:58.424Z,1.90
2022-08-01T18:57:16.731Z,1.90
2022-08-01T18:59:38.952Z,1.85
2022-08-01T19:01:57.102Z,1.80
2022-08-01T19:04:14.076Z,2.10
2022-08-01T19:06:32.720Z,2.13
2022-08-01T19:08:50.022Z,1.90
2022-08-01T19:11:06.937Z,2.20
2022-08-01T19:13:24.210Z,2.10
2022-08-01T19:15:41.565Z,2.00
2022-08-01T19:17:58.902Z,1.90
2022-08-01T19:20:15.903Z,1.98
2022-08-01T19:22:32.978Z,2.00
2022-08-01T19:24:50.341Z,1.90
2022-08-01T19:27:08.673Z,2.15
2022-08-01T19:29:35.021Z,2.10
2022-08-01T19:31:53.368Z,1.95
2022-08-01T19:34:11.386Z,2.10
2022-08-01T19:36:28.636Z,1.83
2022-08-01T19:38:46.193Z,2.20
2022-08-01T19:41:03.955Z,2.20
2022-08-01T19:43:20.915Z,2.30
2022-08-01T19:45:39.120Z,2.10
2022-08-01T19:47:57.813Z,2.15
2022-08-01T19:50:15.221Z,2.13
2022-08-01T19:52:32.230Z,2.33
2022-08-01T19:54:49.524Z,2.47
2022-08-01T19:57:08.672Z,2.45
2022-08-01T19:59:25.950Z,2.55
2022-08-01T20:01:43.300Z,2.53
2022-08-01T20:04:00.618Z,2.33
2022-08-01T20:06:20.962Z,2.50
2022-08-01T20:08:41.633Z,2.40
2022-08-01T20:11:01.967Z,2.40
2022-08-01T20:13:36.866Z,2.55
2022-08-01T20:15:56.498Z,2.50
2022-08-01T20:18:13.474Z,2.38
2022-08-01T20:20:31.673Z,2.70
2022-08-01T20:22:50.324Z,2.28
2022-08-01T20:25:07.603Z,2.47
2022-08-01T20:27:27.308Z,2.28
2022-08-01T20:29:44.574Z,2.47
2022-08-01T20:32:01.639Z,2.65
2022-08-01T20:34:19.774Z,2.80
2022-08-01T20:36:36.812Z,2.60
2022-08-01T20:38:57.724Z,2.75
2022-08-01T20:41:14.817Z,3.45
2022-08-01T20:43:34.190Z,3.75
2022-08-01T20:45:52.129Z,3.90
2022-08-01T20:48:09.178Z,3.63
2022-08-01T20:50:53.627Z,3.28
2022-08-01T20:53:04.429Z,3.40
2022-08-01T20:55:22.672Z,3.40
2022-08-01T20:57:39.716Z,3.17
2022-08-01T20:59:57.505Z,3.35
2022-08-01T21:02:15.851Z,3.05
2022-08-01T21:04:32.894Z,3.20
2022-08-01T21:06:49.981Z,2.95
2022-08-01T21:09:07.264Z,3.22
2022-08-01T21:11:24.300Z,2.92
2022-08-01T21:13:41.572Z,3.42
2022-08-01T21:16:22.162Z,3.33
2022-08-01T21:18:39.241Z,3.30
2022-08-01T21:20:58.907Z,3.70
2022-08-01T21:23:16.099Z,3.65
2022-08-01T21:25:34.468Z,3.90
2022-08-01T21:27:52.966Z,3.72
2022-08-01T21:30:10.052Z,4.30
2022-08-01T21:32:27.651Z,4.38
2022-08-01T21:34:48.822Z,3.63
2022-08-01T21:37:06.885Z,3.45
2022-08-01T21:39:23.991Z,3.90
2022-08-01T21:41:56.702Z,4.40
2022-08-01T21:44:17.898Z,4.10
2022-08-01T21:46:34.904Z,4.53
2022-08-01T21:48:52.855Z,4.65
2022-08-01T21:51:10.221Z,4.25
2022-08-01T21:53:32.372Z,3.88
2022-08-01T21:55:55.838Z,3.65
2022-08-01T21:58:13.214Z,4.00
2022-08-01T22:00:31.567Z,4.40
2022-08-01T22:02:53.810Z,4.60
2022-08-01T22:05:11.100Z,4.50
2022-08-01T22:07:28.504Z,4.75
2022-08-01T22:09:46.520Z,4.45
2022-08-01T22:12:03.630Z,4.75
2022-08-01T22:14:20.917Z,4.97
2022-08-01T22:16:38.261Z,4.55
2022-08-01T22:18:55.494Z,4.82
2022-08-01T22:21:12.805Z,4.57
2022-08-01T22:23:30.042Z,5.30
2022-08-01T22:25:47.086Z,5.38
2022-08-01T22:28:09.240Z,4.97
2022-08-01T22:30:28.525Z,4.80
2022-08-01T22:33:07.304Z,4.97
2022-08-01T22:35:23.552Z,4.40
2022-08-01T22:37:56.046Z,4.38
2022-08-01T22:40:14.151Z,3.88
2022-08-01T22:42:32.450Z,4.00
2022-08-01T22:44:59.508Z,3.92
2022-08-01T22:47:16.555Z,3.92
2022-08-01T22:49:33.950Z,3.92
2022-08-01T22:51:55.664Z,4.10
2022-08-01T22:54:14.346Z,4.15
2022-08-01T22:56:31.458Z,4.18
2022-08-01T22:58:48.468Z,4.00
2022-08-01T23:01:07.742Z,4.03
2022-08-01T23:03:24.849Z,4.10
2022-08-01T23:05:42.177Z,4.30
2022-08-01T23:08:14.555Z,4.30
2022-08-01T23:10:33.333Z,4.68
2022-08-01T23:12:50.368Z,4.65
2022-08-01T23:15:07.650Z,5.07
2022-08-01T23:17:26.357Z,5.20
2022-08-01T23:19:45.478Z,4.43
2022-08-01T23:22:02.543Z,4.25
2022-08-01T23:24:19.825Z,5.03
2022-08-01T23:26:37.116Z,4.60
2022-08-01T23:28:54.391Z,4.43
2022-08-01T23:31:11.427Z,5.05
2022-08-01T23:33:28.468Z,4.97
2022-08-01T23:35:46.508Z,5.18
2022-08-01T23:38:03.568Z,4.90
2022-08-01T23:40:20.941Z,4.97
2022-08-01T23:42:41.974Z,4.63
2022-08-01T23:45:01.213Z,4.57
2022-08-01T23:47:18.281Z,5.03
2022-08-01T23:49:35.614Z,4.97
2022-08-01T23:52:10.948Z,4.80
2022-08-01T23:54:37.512Z,4.57
2022-08-01T23:56:56.138Z,4.63
2022-08-01T23:59:13.150Z,4.18
